Terminal Aerodrome Forecast
Issued by NWS

Home | Current Version | Previous Version | Text Only | Print | Product List | Glossary On
Versions: 1 2 3 4 5 6 7 8 9 10 11 12 13 14 15
339
FTPA31 PHFO 241731
TAFHJR
TAF
PHJR 241731Z 2418/2518 03007KT P6SM FEW045
     FM242000 04013G23KT P6SM VCSH SCT045
     FM250400 04007KT P6SM FEW045=

USA.gov is the U.S. government's official web portal to all federal, state and local government web resources and services.